sensor_id;sensor_type;location;lat;lon;timestamp;pressure;altitude;pressure_sealevel;temperature;humidity
3294;BME280;1659;51.470;6.770;2023-03-14T00:02:15;98939.44;;;11.81;77.82
3294;BME280;1659;51.470;6.770;2023-03-14T00:04:42;98926.03;;;11.84;77.93
3294;BME280;1659;51.470;6.770;2023-03-14T00:07:10;98924.94;;;11.88;77.39
3294;BME280;1659;51.470;6.770;2023-03-14T00:09:37;98917.81;;;11.90;77.18
3294;BME280;1659;51.470;6.770;2023-03-14T00:12:05;98937.09;;;11.93;77.31
3294;BME280;1659;51.470;6.770;2023-03-14T00:14:33;98907.06;;;11.94;77.40
3294;BME280;1659;51.470;6.770;2023-03-14T00:16:59;98903.53;;;11.93;77.26
3294;BME280;1659;51.470;6.770;2023-03-14T00:19:26;98885.97;;;11.92;77.31
3294;BME280;1659;51.470;6.770;2023-03-14T00:21:52;98882.59;;;11.88;77.95
3294;BME280;1659;51.470;6.770;2023-03-14T00:24:19;98887.91;;;11.88;77.85
3294;BME280;1659;51.470;6.770;2023-03-14T00:26:45;98899.31;;;11.89;77.57
3294;BME280;1659;51.470;6.770;2023-03-14T00:29:13;98905.47;;;11.89;77.43
3294;BME280;1659;51.470;6.770;2023-03-14T00:31:40;98905.34;;;11.93;77.43
3294;BME280;1659;51.470;6.770;2023-03-14T00:34:06;98920.28;;;11.94;77.31
3294;BME280;1659;51.470;6.770;2023-03-14T00:36:33;98933.81;;;11.87;77.53
3294;BME280;1659;51.470;6.770;2023-03-14T00:39:00;98941.88;;;11.68;78.41
3294;BME280;1659;51.470;6.770;2023-03-14T00:41:26;98937.78;;;11.45;79.12
3294;BME280;1659;51.470;6.770;2023-03-14T00:43:53;98952.13;;;11.24;80.51
3294;BME280;1659;51.470;6.770;2023-03-14T00:46:21;98959.22;;;11.04;81.80
3294;BME280;1659;51.470;6.770;2023-03-14T00:48:49;98953.00;;;10.88;83.01
3294;BME280;1659;51.470;6.770;2023-03-14T00:51:16;98944.91;;;10.73;84.05
3294;BME280;1659;51.470;6.770;2023-03-14T00:53:43;98942.94;;;10.60;85.01
3294;BME280;1659;51.470;6.770;2023-03-14T00:56:11;98935.59;;;10.47;85.97
3294;BME280;1659;51.470;6.770;2023-03-14T00:58:38;98944.09;;;10.35;86.53
3294;BME280;1659;51.470;6.770;2023-03-14T01:01:06;98941.78;;;10.27;87.17
3294;BME280;1659;51.470;6.770;2023-03-14T01:03:34;98956.19;;;10.20;87.94
3294;BME280;1659;51.470;6.770;2023-03-14T01:06:12;98944.97;;;10.15;88.39
3294;BME280;1659;51.470;6.770;2023-03-14T01:08:39;98938.16;;;10.11;88.55
3294;BME280;1659;51.470;6.770;2023-03-14T01:11:08;98948.84;;;10.08;88.73
3294;BME280;1659;51.470;6.770;2023-03-14T01:13:35;98948.06;;;10.06;88.99
3294;BME280;1659;51.470;6.770;2023-03-14T01:16:04;98950.75;;;10.04;89.04
3294;BME280;1659;51.470;6.770;2023-03-14T01:18:32;98946.50;;;10.01;89.31
3294;BME280;1659;51.470;6.770;2023-03-14T01:21:00;98954.41;;;10.01;89.61
3294;BME280;1659;51.470;6.770;2023-03-14T01:23:26;98943.78;;;10.03;89.57
3294;BME280;1659;51.470;6.770;2023-03-14T01:25:53;98938.41;;;10.05;89.64
3294;BME280;1659;51.470;6.770;2023-03-14T01:28:20;98929.66;;;10.04;89.68
3294;BME280;1659;51.470;6.770;2023-03-14T01:30:46;98929.72;;;10.02;89.82
3294;BME280;1659;51.470;6.770;2023-03-14T01:33:13;98949.06;;;10.03;89.72
3294;BME280;1659;51.470;6.770;2023-03-14T01:35:40;98939.34;;;10.04;89.99
3294;BME280;1659;51.470;6.770;2023-03-14T01:38:07;98941.94;;;10.05;89.77
3294;BME280;1659;51.470;6.770;2023-03-14T01:40:41;98940.28;;;10.02;89.77
3294;BME280;1659;51.470;6.770;2023-03-14T01:43:13;98938.72;;;9.98;89.95
3294;BME280;1659;51.470;6.770;2023-03-14T01:46:25;98934.56;;;9.93;90.08
3294;BME280;1659;51.470;6.770;2023-03-14T01:49:01;98923.44;;;9.86;90.17
3294;BME280;1659;51.470;6.770;2023-03-14T01:51:31;98935.06;;;9.82;90.15
3294;BME280;1659;51.470;6.770;2023-03-14T01:54:06;98920.34;;;9.76;90.03
3294;BME280;1659;51.470;6.770;2023-03-14T01:56:35;98931.06;;;9.73;90.37
3294;BME280;1659;51.470;6.770;2023-03-14T01:59:04;98919.69;;;9.71;90.47
3294;BME280;1659;51.470;6.770;2023-03-14T02:01:33;98914.34;;;9.73;90.52
3294;BME280;1659;51.470;6.770;2023-03-14T02:04:03;98932.81;;;9.73;90.58
3294;BME280;1659;51.470;6.770;2023-03-14T02:06:35;98929.22;;;9.75;90.43
3294;BME280;1659;51.470;6.770;2023-03-14T02:09:06;98937.91;;;9.77;90.65
3294;BME280;1659;51.470;6.770;2023-03-14T02:11:33;98920.22;;;9.79;90.68
3294;BME280;1659;51.470;6.770;2023-03-14T02:14:01;98920.16;;;9.81;90.52
3294;BME280;1659;51.470;6.770;2023-03-14T02:16:28;98913.88;;;9.83;90.47
3294;BME280;1659;51.470;6.770;2023-03-14T02:18:54;98919.94;;;9.86;90.27
3294;BME280;1659;51.470;6.770;2023-03-14T02:21:26;98910.19;;;9.88;90.02
3294;BME280;1659;51.470;6.770;2023-03-14T02:23:59;98912.69;;;9.91;90.24
3294;BME280;1659;51.470;6.770;2023-03-14T02:26:32;98920.50;;;9.92;90.18
3294;BME280;1659;51.470;6.770;2023-03-14T02:29:04;98913.41;;;9.94;90.10
3294;BME280;1659;51.470;6.770;2023-03-14T02:31:30;98914.19;;;9.96;90.01
3294;BME280;1659;51.470;6.770;2023-03-14T02:33:58;98915.88;;;9.97;89.97
3294;BME280;1659;51.470;6.770;2023-03-14T02:36:26;98910.59;;;9.97;90.00
3294;BME280;1659;51.470;6.770;2023-03-14T02:38:55;98922.81;;;10.00;89.77
3294;BME280;1659;51.470;6.770;2023-03-14T02:41:25;98930.59;;;10.03;89.63
3294;BME280;1659;51.470;6.770;2023-03-14T02:43:52;98928.72;;;10.05;89.53
3294;BME280;1659;51.470;6.770;2023-03-14T02:46:21;98925.16;;;10.06;89.08
3294;BME280;1659;51.470;6.770;2023-03-14T02:48:51;98925.16;;;10.06;89.28
3294;BME280;1659;51.470;6.770;2023-03-14T02:51:20;98916.38;;;10.06;89.35
3294;BME280;1659;51.470;6.770;2023-03-14T02:53:47;98906.53;;;10.09;89.32
3294;BME280;1659;51.470;6.770;2023-03-14T02:56:14;98916.13;;;10.12;89.36
3294;BME280;1659;51.470;6.770;2023-03-14T02:58:40;98928.31;;;10.14;89.46
3294;BME280;1659;51.470;6.770;2023-03-14T03:01:07;98914.19;;;10.15;89.57
3294;BME280;1659;51.470;6.770;2023-03-14T03:03:35;98912.25;;;10.19;89.42
3294;BME280;1659;51.470;6.770;2023-03-14T03:06:01;98904.28;;;10.20;89.19
3294;BME280;1659;51.470;6.770;2023-03-14T03:08:29;98897.97;;;10.23;89.09
3294;BME280;1659;51.470;6.770;2023-03-14T03:10:58;98897.91;;;10.25;88.99
3294;BME280;1659;51.470;6.770;2023-03-14T03:13:24;98899.63;;;10.26;88.85
3294;BME280;1659;51.470;6.770;2023-03-14T03:15:52;98897.84;;;10.26;89.07
3294;BME280;1659;51.470;6.770;2023-03-14T03:18:18;98887.28;;;10.26;88.75
3294;BME280;1659;51.470;6.770;2023-03-14T03:20:46;98890.84;;;10.25;88.93
3294;BME280;1659;51.470;6.770;2023-03-14T03:23:13;98882.06;;;10.25;88.77
3294;BME280;1659;51.470;6.770;2023-03-14T03:25:39;98882.00;;;10.26;89.05
3294;BME280;1659;51.470;6.770;2023-03-14T03:28:06;98886.44;;;10.26;88.64
3294;BME280;1659;51.470;6.770;2023-03-14T03:30:36;98875.88;;;10.26;88.71
3294;BME280;1659;51.470;6.770;2023-03-14T03:33:03;98882.78;;;10.28;88.54
3294;BME280;1659;51.470;6.770;2023-03-14T03:35:29;98874.78;;;10.30;88.29
3294;BME280;1659;51.470;6.770;2023-03-14T03:37:57;98873.00;;;10.30;87.94
3294;BME280;1659;51.470;6.770;2023-03-14T03:40:24;98871.16;;;10.32;87.74
3294;BME280;1659;51.470;6.770;2023-03-14T03:42:51;98879.97;;;10.33;87.74
3294;BME280;1659;51.470;6.770;2023-03-14T03:45:17;98867.69;;;10.32;87.62
3294;BME280;1659;51.470;6.770;2023-03-14T03:47:44;98876.66;;;10.28;87.42
3294;BME280;1659;51.470;6.770;2023-03-14T03:50:10;98875.06;;;10.24;87.42
3294;BME280;1659;51.470;6.770;2023-03-14T03:52:37;98867.38;;;10.19;87.53
3294;BME280;1659;51.470;6.770;2023-03-14T03:55:06;98872.16;;;10.11;87.97
3294;BME280;1659;51.470;6.770;2023-03-14T03:57:32;98868.09;;;10.04;88.55
3294;BME280;1659;51.470;6.770;2023-03-14T03:59:59;98873.66;;;9.97;88.99
3294;BME280;1659;51.470;6.770;2023-03-14T04:02:26;98858.00;;;9.94;89.26
3294;BME280;1659;51.470;6.770;2023-03-14T04:04:52;98862.41;;;9.94;89.52
3294;BME280;1659;51.470;6.770;2023-03-14T04:07:19;98852.72;;;9.94;89.81
3294;BME280;1659;51.470;6.770;2023-03-14T04:09:45;98865.81;;;9.96;89.58
3294;BME280;1659;51.470;6.770;2023-03-14T04:12:13;98865.69;;;9.99;89.82
3294;BME280;1659;51.470;6.770;2023-03-14T04:14:40;98861.28;;;9.99;89.94
3294;BME280;1659;51.470;6.770;2023-03-14T04:17:07;98861.03;;;10.04;89.42
3294;BME280;1659;51.470;6.770;2023-03-14T04:19:34;98856.72;;;10.03;89.34
3294;BME280;1659;51.470;6.770;2023-03-14T04:22:01;98862.41;;;9.94;89.39
3294;BME280;1659;51.470;6.770;2023-03-14T04:24:27;98855.41;;;9.74;90.03
3294;BME280;1659;51.470;6.770;2023-03-14T04:26:54;98850.19;;;9.53;91.03
3294;BME280;1659;51.470;6.770;2023-03-14T04:29:22;98842.31;;;9.33;92.02
3294;BME280;1659;51.470;6.770;2023-03-14T04:31:48;98841.22;;;9.18;92.41
3294;BME280;1659;51.470;6.770;2023-03-14T04:34:15;98844.34;;;9.07;93.36
3294;BME280;1659;51.470;6.770;2023-03-14T04:36:41;98851.66;;;9.00;93.63
3294;BME280;1659;51.470;6.770;2023-03-14T04:39:08;98846.56;;;8.96;94.24
3294;BME280;1659;51.470;6.770;2023-03-14T04:41:34;98846.75;;;8.91;94.71
3294;BME280;1659;51.470;6.770;2023-03-14T04:44:01;98836.50;;;8.85;94.75
3294;BME280;1659;51.470;6.770;2023-03-14T04:46:29;98850.72;;;8.81;95.48
3294;BME280;1659;51.470;6.770;2023-03-14T04:48:55;98860.53;;;8.77;95.47
3294;BME280;1659;51.470;6.770;2023-03-14T04:51:22;98847.56;;;8.73;96.16
3294;BME280;1659;51.470;6.770;2023-03-14T04:53:52;98836.28;;;8.69;96.10
3294;BME280;1659;51.470;6.770;2023-03-14T04:56:19;98846.09;;;8.65;96.42
3294;BME280;1659;51.470;6.770;2023-03-14T04:58:45;98833.97;;;8.61;96.83
3294;BME280;1659;51.470;6.770;2023-03-14T05:01:12;98834.97;;;8.59;97.45
3294;BME280;1659;51.470;6.770;2023-03-14T05:03:42;98839.44;;;8.57;98.06
3294;BME280;1659;51.470;6.770;2023-03-14T05:06:09;98836.81;;;8.57;98.04
3294;BME280;1659;51.470;6.770;2023-03-14T05:08:36;98829.94;;;8.53;97.64
3294;BME280;1659;51.470;6.770;2023-03-14T05:11:03;98815.03;;;8.53;98.43
3294;BME280;1659;51.470;6.770;2023-03-14T05:13:29;98821.25;;;8.50;98.69
3294;BME280;1659;51.470;6.770;2023-03-14T05:16:04;98818.69;;;8.49;98.79
3294;BME280;1659;51.470;6.770;2023-03-14T05:18:30;98820.47;;;8.48;99.65
3294;BME280;1659;51.470;6.770;2023-03-14T05:20:59;98816.94;;;8.49;99.29
3294;BME280;1659;51.470;6.770;2023-03-14T05:23:26;98817.00;;;8.48;99.65
3294;BME280;1659;51.470;6.770;2023-03-14T05:25:52;98817.84;;;8.48;100.00
3294;BME280;1659;51.470;6.770;2023-03-14T05:28:19;98812.56;;;8.48;100.00
3294;BME280;1659;51.470;6.770;2023-03-14T05:30:46;98814.28;;;8.49;100.00
3294;BME280;1659;51.470;6.770;2023-03-14T05:33:12;98802.88;;;8.49;100.00
3294;BME280;1659;51.470;6.770;2023-03-14T05:35:39;98797.63;;;8.49;100.00
3294;BME280;1659;51.470;6.770;2023-03-14T05:38:07;98794.22;;;8.47;100.00
3294;BME280;1659;51.470;6.770;2023-03-14T05:40:34;98794.22;;;8.47;100.00
3294;BME280;1659;51.470;6.770;2023-03-14T05:43:00;98797.72;;;8.47;100.00
3294;BME280;1659;51.470;6.770;2023-03-14T05:45:27;98797.72;;;8.47;100.00
3294;BME280;1659;51.470;6.770;2023-03-14T05:47:53;98790.66;;;8.48;100.00
3294;BME280;1659;51.470;6.770;2023-03-14T05:50:20;98793.25;;;8.49;100.00
3294;BME280;1659;51.470;6.770;2023-03-14T05:52:47;98791.41;;;8.52;100.00
3294;BME280;1659;51.470;6.770;2023-03-14T05:55:15;98788.69;;;8.53;100.00
3294;BME280;1659;51.470;6.770;2023-03-14T05:57:41;98780.69;;;8.56;100.00
3294;BME280;1659;51.470;6.770;2023-03-14T06:00:09;98789.31;;;8.60;100.00
3294;BME280;1659;51.470;6.770;2023-03-14T06:02:36;98785.66;;;8.62;100.00
3294;BME280;1659;51.470;6.770;2023-03-14T06:05:03;98789.97;;;8.65;100.00
3294;BME280;1659;51.470;6.770;2023-03-14T06:07:29;98776.66;;;8.68;100.00
3294;BME280;1659;51.470;6.770;2023-03-14T06:09:56;98786.28;;;8.69;100.00
3294;BME280;1659;51.470;6.770;2023-03-14T06:12:25;98774.78;;;8.70;100.00
3294;BME280;1659;51.470;6.770;2023-03-14T06:14:51;98780.81;;;8.74;100.00
3294;BME280;1659;51.470;6.770;2023-03-14T06:17:18;98784.16;;;8.77;100.00
3294;BME280;1659;51.470;6.770;2023-03-14T06:19:44;98790.22;;;8.79;100.00
3294;BME280;1659;51.470;6.770;2023-03-14T06:22:11;98790.06;;;8.82;100.00
3294;BME280;1659;51.470;6.770;2023-03-14T06:24:38;98783.81;;;8.85;100.00
3294;BME280;1659;51.470;6.770;2023-03-14T06:27:05;98793.28;;;8.89;100.00
3294;BME280;1659;51.470;6.770;2023-03-14T06:29:33;98786.13;;;8.93;100.00
3294;BME280;1659;51.470;6.770;2023-03-14T06:32:00;98790.41;;;8.95;100.00
3294;BME280;1659;51.470;6.770;2023-03-14T06:34:26;98796.47;;;8.97;100.00
3294;BME280;1659;51.470;6.770;2023-03-14T06:36:53;98790.13;;;9.01;100.00
3294;BME280;1659;51.470;6.770;2023-03-14T06:39:20;98778.53;;;9.05;100.00
3294;BME280;1659;51.470;6.770;2023-03-14T06:41:46;98782.81;;;9.08;100.00
3294;BME280;1659;51.470;6.770;2023-03-14T06:44:13;98792.31;;;9.12;100.00
3294;BME280;1659;51.470;6.770;2023-03-14T06:46:41;98787.81;;;9.14;100.00
3294;BME280;1659;51.470;6.770;2023-03-14T06:49:07;98786.75;;;9.18;100.00
3294;BME280;1659;51.470;6.770;2023-03-14T06:51:34;98784.75;;;9.23;100.00
3294;BME280;1659;51.470;6.770;2023-03-14T06:54:01;98787.25;;;9.26;100.00
3294;BME280;1659;51.470;6.770;2023-03-14T06:56:27;98792.31;;;9.31;100.00
3294;BME280;1659;51.470;6.770;2023-03-14T06:58:54;98787.75;;;9.35;100.00
3294;BME280;1659;51.470;6.770;2023-03-14T07:01:23;98788.63;;;9.35;100.00
3294;BME280;1659;51.470;6.770;2023-03-14T07:03:51;98795.59;;;9.36;100.00
3294;BME280;1659;51.470;6.770;2023-03-14T07:06:18;98795.59;;;9.36;100.00
3294;BME280;1659;51.470;6.770;2023-03-14T07:08:45;98793.84;;;9.37;100.00
3294;BME280;1659;51.470;6.770;2023-03-14T07:11:12;98806.13;;;9.36;100.00
3294;BME280;1659;51.470;6.770;2023-03-14T07:13:38;98792.94;;;9.36;100.00
3294;BME280;1659;51.470;6.770;2023-03-14T07:16:06;98799.03;;;9.38;100.00
3294;BME280;1659;51.470;6.770;2023-03-14T07:18:33;98803.31;;;9.41;100.00
3294;BME280;1659;51.470;6.770;2023-03-14T07:21:01;98803.16;;;9.44;100.00
3294;BME280;1659;51.470;6.770;2023-03-14T07:23:27;98809.28;;;9.44;100.00
3294;BME280;1659;51.470;6.770;2023-03-14T07:25:54;98810.84;;;9.49;100.00
3294;BME280;1659;51.470;6.770;2023-03-14T07:28:21;98813.41;;;9.50;100.00
3294;BME280;1659;51.470;6.770;2023-03-14T07:30:48;98817.84;;;9.50;100.00
3294;BME280;1659;51.470;6.770;2023-03-14T07:33:15;98810.78;;;9.50;100.00
3294;BME280;1659;51.470;6.770;2023-03-14T07:35:42;98820.28;;;9.54;100.00
3294;BME280;1659;51.470;6.770;2023-03-14T07:38:10;98812.31;;;9.56;100.00
3294;BME280;1659;51.470;6.770;2023-03-14T07:40:37;98808.72;;;9.57;100.00
3294;BME280;1659;51.470;6.770;2023-03-14T07:43:03;98814.78;;;9.59;100.00
3294;BME280;1659;51.470;6.770;2023-03-14T07:45:30;98815.66;;;9.59;100.00
3294;BME280;1659;51.470;6.770;2023-03-14T07:47:56;98821.72;;;9.61;100.00
3294;BME280;1659;51.470;6.770;2023-03-14T07:50:23;98824.34;;;9.61;100.00
3294;BME280;1659;51.470;6.770;2023-03-14T07:52:50;98825.97;;;9.64;100.00
3294;BME280;1659;51.470;6.770;2023-03-14T07:55:18;98826.69;;;9.68;100.00
3294;BME280;1659;51.470;6.770;2023-03-14T07:57:45;98827.25;;;9.74;100.00
3294;BME280;1659;51.470;6.770;2023-03-14T08:00:12;98831.44;;;9.78;100.00
3294;BME280;1659;51.470;6.770;2023-03-14T08:02:39;98831.25;;;9.83;100.00
3294;BME280;1659;51.470;6.770;2023-03-14T08:05:06;98838.97;;;9.88;100.00
3294;BME280;1659;51.470;6.770;2023-03-14T08:07:33;98836.09;;;9.92;100.00
3294;BME280;1659;51.470;6.770;2023-03-14T08:09:59;98833.88;;;10.02;100.00
3294;BME280;1659;51.470;6.770;2023-03-14T08:12:27;98837.34;;;10.21;100.00
3294;BME280;1659;51.470;6.770;2023-03-14T08:14:54;98837.56;;;10.36;100.00
3294;BME280;1659;51.470;6.770;2023-03-14T08:17:21;98831.06;;;10.43;100.00
3294;BME280;1659;51.470;6.770;2023-03-14T08:19:47;98829.50;;;10.56;100.00
3294;BME280;1659;51.470;6.770;2023-03-14T08:22:14;98828.53;;;10.76;100.00
3294;BME280;1659;51.470;6.770;2023-03-14T08:24:40;98830.81;;;11.00;100.00
3294;BME280;1659;51.470;6.770;2023-03-14T08:27:07;98831.22;;;11.10;100.00
3294;BME280;1659;51.470;6.770;2023-03-14T08:29:35;98831.03;;;11.13;100.00
3294;BME280;1659;51.470;6.770;2023-03-14T08:32:02;98836.31;;;11.13;100.00
3294;BME280;1659;51.470;6.770;2023-03-14T08:34:28;98840.75;;;11.12;100.00
3294;BME280;1659;51.470;6.770;2023-03-14T08:36:55;98834.78;;;11.09;100.00
3294;BME280;1659;51.470;6.770;2023-03-14T08:39:22;98838.38;;;11.08;100.00
3294;BME280;1659;51.470;6.770;2023-03-14T08:41:49;98840.16;;;11.07;100.00
3294;BME280;1659;51.470;6.770;2023-03-14T08:44:16;98851.97;;;11.00;100.00
3294;BME280;1659;51.470;6.770;2023-03-14T08:46:44;98862.00;;;10.93;100.00
3294;BME280;1659;51.470;6.770;2023-03-14T08:49:10;98856.50;;;10.81;100.00
3294;BME280;1659;51.470;6.770;2023-03-14T08:51:37;98860.59;;;10.69;100.00
3294;BME280;1659;51.470;6.770;2023-03-14T08:54:03;98857.63;;;10.57;100.00
3294;BME280;1659;51.470;6.770;2023-03-14T08:56:30;98865.16;;;10.48;100.00
3294;BME280;1659;51.470;6.770;2023-03-14T08:58:57;98870.88;;;10.38;100.00
3294;BME280;1659;51.470;6.770;2023-03-14T09:01:23;98875.63;;;10.30;100.00
3294;BME280;1659;51.470;6.770;2023-03-14T09:03:52;98877.63;;;10.25;100.00
3294;BME280;1659;51.470;6.770;2023-03-14T09:06:19;98895.47;;;10.20;100.00
3294;BME280;1659;51.470;6.770;2023-03-14T09:08:45;98930.09;;;10.14;100.00
3294;BME280;1659;51.470;6.770;2023-03-14T09:11:13;98951.91;;;9.98;100.00
3294;BME280;1659;51.470;6.770;2023-03-14T09:13:40;98972.78;;;9.63;100.00
3294;BME280;1659;51.470;6.770;2023-03-14T09:16:08;98977.81;;;9.29;100.00
3294;BME280;1659;51.470;6.770;2023-03-14T09:18:34;98986.13;;;8.97;100.00
3294;BME280;1659;51.470;6.770;2023-03-14T09:21:03;98993.09;;;8.76;100.00
3294;BME280;1659;51.470;6.770;2023-03-14T09:23:29;99006.75;;;8.64;100.00
3294;BME280;1659;51.470;6.770;2023-03-14T09:25:57;99009.81;;;8.53;100.00
3294;BME280;1659;51.470;6.770;2023-03-14T09:28:23;99029.44;;;8.44;100.00
3294;BME280;1659;51.470;6.770;2023-03-14T09:30:50;99032.25;;;8.38;100.00
3294;BME280;1659;51.470;6.770;2023-03-14T09:33:17;99053.44;;;8.35;100.00
3294;BME280;1659;51.470;6.770;2023-03-14T09:35:44;99054.47;;;8.31;100.00
3294;BME280;1659;51.470;6.770;2023-03-14T09:38:12;99073.94;;;8.27;100.00
3294;BME280;1659;51.470;6.770;2023-03-14T09:40:39;99086.19;;;8.26;100.00
3294;BME280;1659;51.470;6.770;2023-03-14T09:43:05;99095.03;;;8.25;100.00
3294;BME280;1659;51.470;6.770;2023-03-14T09:45:34;99102.81;;;8.28;100.00
3294;BME280;1659;51.470;6.770;2023-03-14T09:48:03;99122.19;;;8.26;100.00
3294;BME280;1659;51.470;6.770;2023-03-14T09:50:33;99127.56;;;8.23;100.00
3294;BME280;1659;51.470;6.770;2023-03-14T09:53:04;99132.13;;;8.18;100.00
3294;BME280;1659;51.470;6.770;2023-03-14T09:55:34;99140.19;;;8.13;100.00
3294;BME280;1659;51.470;6.770;2023-03-14T09:58:04;99142.97;;;8.08;100.00
3294;BME280;1659;51.470;6.770;2023-03-14T10:00:35;99154.47;;;8.06;100.00
3294;BME280;1659;51.470;6.770;2023-03-14T10:03:20;99163.25;;;8.05;100.00
3294;BME280;1659;51.470;6.770;2023-03-14T10:05:47;99168.56;;;8.03;100.00
3294;BME280;1659;51.470;6.770;2023-03-14T10:08:14;99184.34;;;8.03;100.00
3294;BME280;1659;51.470;6.770;2023-03-14T10:10:42;99188.66;;;8.06;100.00
3294;BME280;1659;51.470;6.770;2023-03-14T10:13:14;99200.81;;;8.10;100.00
3294;BME280;1659;51.470;6.770;2023-03-14T10:15:42;99201.78;;;8.07;100.00
3294;BME280;1659;51.470;6.770;2023-03-14T10:18:13;99212.19;;;8.10;100.00
3294;BME280;1659;51.470;6.770;2023-03-14T10:20:44;99237.63;;;8.10;100.00
3294;BME280;1659;51.470;6.770;2023-03-14T10:23:27;99254.41;;;8.07;100.00
3294;BME280;1659;51.470;6.770;2023-03-14T10:26:07;99259.88;;;8.00;100.00
3294;BME280;1659;51.470;6.770;2023-03-14T10:28:39;99284.72;;;7.91;100.00
3294;BME280;1659;51.470;6.770;2023-03-14T10:31:06;99288.44;;;7.84;100.00
3294;BME280;1659;51.470;6.770;2023-03-14T10:33:34;99304.50;;;7.74;100.00
3294;BME280;1659;51.470;6.770;2023-03-14T10:36:02;99329.44;;;7.61;100.00
3294;BME280;1659;51.470;6.770;2023-03-14T10:38:31;99335.06;;;7.49;100.00
3294;BME280;1659;51.470;6.770;2023-03-14T10:40:58;99347.72;;;7.36;100.00
3294;BME280;1659;51.470;6.770;2023-03-14T10:43:30;99369.09;;;7.22;100.00
3294;BME280;1659;51.470;6.770;2023-03-14T10:45:59;99377.28;;;7.11;100.00
3294;BME280;1659;51.470;6.770;2023-03-14T10:48:32;99407.16;;;7.07;100.00
3294;BME280;1659;51.470;6.770;2023-03-14T10:51:04;99416.91;;;7.02;100.00
3294;BME280;1659;51.470;6.770;2023-03-14T10:53:40;99425.72;;;7.01;100.00
3294;BME280;1659;51.470;6.770;2023-03-14T10:56:12;99435.28;;;7.02;100.00
3294;BME280;1659;51.470;6.770;2023-03-14T10:58:42;99443.06;;;7.07;100.00
3294;BME280;1659;51.470;6.770;2023-03-14T11:01:23;99450.63;;;7.19;100.00
3294;BME280;1659;51.470;6.770;2023-03-14T11:03:54;99458.88;;;7.38;100.00
3294;BME280;1659;51.470;6.770;2023-03-14T11:06:28;99462.63;;;7.62;100.00
3294;BME280;1659;51.470;6.770;2023-03-14T11:09:03;99467.56;;;7.73;100.00
3294;BME280;1659;51.470;6.770;2023-03-14T11:11:33;99483.41;;;7.71;100.00
3294;BME280;1659;51.470;6.770;2023-03-14T11:14:08;99503.53;;;7.72;99.16
3294;BME280;1659;51.470;6.770;2023-03-14T11:16:47;99503.31;;;7.80;99.69
3294;BME280;1659;51.470;6.770;2023-03-14T11:19:30;99522.47;;;7.85;99.53
3294;BME280;1659;51.470;6.770;2023-03-14T11:22:04;99536.34;;;7.90;99.54
3294;BME280;1659;51.470;6.770;2023-03-14T11:24:55;99549.19;;;8.01;99.62
3294;BME280;1659;51.470;6.770;2023-03-14T11:27:32;99556.94;;;8.07;99.77
3294;BME280;1659;51.470;6.770;2023-03-14T11:30:06;99569.03;;;8.13;99.43
3294;BME280;1659;51.470;6.770;2023-03-14T11:32:44;99576.13;;;8.11;98.51
3294;BME280;1659;51.470;6.770;2023-03-14T11:35:17;99588.50;;;8.07;98.55
3294;BME280;1659;51.470;6.770;2023-03-14T11:37:48;99594.00;;;7.98;98.09
3294;BME280;1659;51.470;6.770;2023-03-14T11:40:20;99616.81;;;7.98;98.29
3294;BME280;1659;51.470;6.770;2023-03-14T11:42:53;99609.72;;;8.00;98.11
3294;BME280;1659;51.470;6.770;2023-03-14T11:45:29;99606.28;;;7.98;97.67
3294;BME280;1659;51.470;6.770;2023-03-14T11:48:06;99622.00;;;8.01;97.23
3294;BME280;1659;51.470;6.770;2023-03-14T11:50:36;99630.78;;;8.00;96.26
3294;BME280;1659;51.470;6.770;2023-03-14T11:53:09;99635.97;;;8.03;95.98
3294;BME280;1659;51.470;6.770;2023-03-14T11:55:40;99643.66;;;8.10;95.22
3294;BME280;1659;51.470;6.770;2023-03-14T11:58:12;99648.44;;;8.29;95.53
3294;BME280;1659;51.470;6.770;2023-03-14T12:00:43;99650.41;;;8.54;95.65
3294;BME280;1659;51.470;6.770;2023-03-14T12:03:16;99662.09;;;9.04;95.88
3294;BME280;1659;51.470;6.770;2023-03-14T12:05:53;99674.44;;;9.32;95.03
3294;BME280;1659;51.470;6.770;2023-03-14T12:08:38;99674.00;;;9.46;94.34
3294;BME280;1659;51.470;6.770;2023-03-14T12:11:11;99680.41;;;9.37;93.86
3294;BME280;1659;51.470;6.770;2023-03-14T12:13:40;99677.81;;;9.36;93.88
3294;BME280;1659;51.470;6.770;2023-03-14T12:16:27;99688.78;;;9.50;94.02
3294;BME280;1659;51.470;6.770;2023-03-14T12:18:56;99693.50;;;9.95;94.58
3294;BME280;1659;51.470;6.770;2023-03-14T12:21:42;99691.47;;;10.29;93.63
3294;BME280;1659;51.470;6.770;2023-03-14T12:24:18;99711.69;;;10.31;92.15
3294;BME280;1659;51.470;6.770;2023-03-14T12:26:52;99721.44;;;10.01;91.59
3294;BME280;1659;51.470;6.770;2023-03-14T12:29:19;99726.97;;;9.67;91.16
3294;BME280;1659;51.470;6.770;2023-03-14T12:31:48;99740.22;;;9.37;91.09
3294;BME280;1659;51.470;6.770;2023-03-14T12:34:31;99760.63;;;8.99;90.28
3294;BME280;1659;51.470;6.770;2023-03-14T12:37:17;99774.53;;;8.73;90.59
3294;BME280;1659;51.470;6.770;2023-03-14T12:39:56;99789.66;;;8.64;90.78
3294;BME280;1659;51.470;6.770;2023-03-14T12:42:38;99800.66;;;8.47;90.09
3294;BME280;1659;51.470;6.770;2023-03-14T12:45:24;99812.28;;;8.37;89.87
3294;BME280;1659;51.470;6.770;2023-03-14T12:48:00;99810.47;;;8.39;90.17
3294;BME280;1659;51.470;6.770;2023-03-14T12:50:35;99808.88;;;8.68;90.54
3294;BME280;1659;51.470;6.770;2023-03-14T12:53:43;99813.53;;;9.22;91.05
3294;BME280;1659;51.470;6.770;2023-03-14T12:56:32;99821.97;;;9.65;89.79
3294;BME280;1659;51.470;6.770;2023-03-14T12:59:22;99835.28;;;9.90;88.45
3294;BME280;1659;51.470;6.770;2023-03-14T13:01:55;99841.59;;;9.85;87.95
3294;BME280;1659;51.470;6.770;2023-03-14T13:04:31;99856.75;;;9.78;87.94
3294;BME280;1659;51.470;6.770;2023-03-14T13:07:01;99867.72;;;9.64;87.80
3294;BME280;1659;51.470;6.770;2023-03-14T13:10:00;99901.59;;;9.15;84.08
3294;BME280;1659;51.470;6.770;2023-03-14T13:12:34;99895.44;;;8.82;84.04
3294;BME280;1659;51.470;6.770;2023-03-14T13:15:14;99910.88;;;8.61;84.99
3294;BME280;1659;51.470;6.770;2023-03-14T13:17:41;99912.09;;;8.48;85.61
3294;BME280;1659;51.470;6.770;2023-03-14T13:20:13;99923.75;;;8.36;85.17
3294;BME280;1659;51.470;6.770;2023-03-14T13:22:46;99927.31;;;8.34;85.58
3294;BME280;1659;51.470;6.770;2023-03-14T13:25:13;99926.47;;;8.31;84.92
3294;BME280;1659;51.470;6.770;2023-03-14T13:27:42;99939.63;;;8.31;85.42
3294;BME280;1659;51.470;6.770;2023-03-14T13:30:22;99944.81;;;8.35;85.57
3294;BME280;1659;51.470;6.770;2023-03-14T13:32:50;99949.25;;;8.32;85.18
3294;BME280;1659;51.470;6.770;2023-03-14T13:35:21;99945.66;;;8.37;84.68
3294;BME280;1659;51.470;6.770;2023-03-14T13:37:52;99949.06;;;8.40;84.20